Time;durP1;ratioP1;P1;durP2;ratioP2;P2;SDS_P1;SDS_P2;PMS_P1;PMS_P2;Temp;Humidity;BMP_temperature;BMP_pressure;BME280_temperature;BME280_humidity;BME280_pressure;Samples;Min_cycle;Max_cycle;Signal;HPM_P1;HPM_P2
2021/08/04 00:00:40;;;;;;;13.10;5.05;;;;;;;27.00;41.53;99642.88;5041447;28;20043;-69
2021/08/04 00:03:05;;;;;;;13.73;5.32;;;;;;;26.96;41.46;99662.69;5038260;28;20025;-69
2021/08/04 00:05:30;;;;;;;15.73;6.75;;;;;;;26.90;41.71;99658.34;5041550;28;20037;-67
2021/08/04 00:07:56;;;;;;;19.95;8.45;;;;;;;27.06;41.56;99648.34;5035338;28;20033;-67
2021/08/04 00:10:22;;;;;;;21.42;9.02;;;;;;;26.89;41.52;99643.13;5040423;28;20269;-67
2021/08/04 00:12:48;;;;;;;18.20;8.93;;;;;;;26.90;40.85;99634.69;5041575;28;20030;-67
2021/08/04 00:15:15;;;;;;;20.10;9.40;;;;;;;27.13;40.38;99646.16;5040153;28;20060;-67
2021/08/04 00:17:42;;;;;;;20.00;8.82;;;;;;;27.21;40.41;99645.59;5037738;28;20025;-67
2021/08/04 00:20:09;;;;;;;19.05;9.13;;;;;;;27.54;39.82;99650.44;5040783;28;20025;-67
2021/08/04 00:22:34;;;;;;;27.58;10.35;;;;;;;27.63;39.07;99648.00;5040080;28;20041;-69
2021/08/04 00:25:00;;;;;;;24.08;11.02;;;;;;;27.58;39.62;99651.53;5035728;28;20021;-69
2021/08/04 00:27:27;;;;;;;27.00;10.95;;;;;;;27.57;39.37;99658.06;5040304;28;20044;-69
2021/08/04 00:29:57;;;;;;;24.65;10.10;;;;;;;27.66;39.27;99645.53;5040067;28;20029;-69
2021/08/04 00:32:23;;;;;;;21.05;10.07;;;;;;;27.77;38.99;99649.03;5041002;28;20033;-68
2021/08/04 00:34:49;;;;;;;16.77;9.85;;;;;;;27.72;39.81;99637.38;5039654;28;20042;-69
2021/08/04 00:37:17;;;;;;;22.63;10.15;;;;;;;27.85;39.55;99628.63;5039938;28;20200;-69
2021/08/04 00:39:42;;;;;;;23.33;9.52;;;;;;;27.77;39.01;99629.19;5040652;28;20045;-67
2021/08/04 00:42:10;;;;;;;24.48;10.27;;;;;;;27.70;39.86;99628.66;5039452;28;20021;-67
2021/08/04 00:44:35;;;;;;;21.02;9.57;;;;;;;27.63;39.80;99631.69;5036969;28;20057;-67
2021/08/04 00:47:01;;;;;;;24.42;10.65;;;;;;;27.55;40.07;99634.94;5040590;28;20282;-67
2021/08/04 00:49:27;;;;;;;25.20;9.82;;;;;;;27.59;39.62;99625.94;5039859;28;20029;-67
2021/08/04 00:51:52;;;;;;;20.73;8.85;;;;;;;27.55;40.24;99621.34;5040282;28;20108;-67
2021/08/04 00:54:18;;;;;;;19.77;9.57;;;;;;;27.56;40.36;99625.69;5039187;28;20460;-67
2021/08/04 00:56:43;;;;;;;22.80;9.75;;;;;;;27.59;39.97;99627.84;5039201;28;20029;-67
2021/08/04 00:59:12;;;;;;;26.00;9.45;;;;;;;27.61;40.32;99621.09;5043340;28;20039;-69
2021/08/04 01:01:48;;;;;;;23.88;9.93;;;;;;;27.63;40.15;99618.91;5042889;28;20092;-69
2021/08/04 01:04:27;;;;;;;20.77;9.93;;;;;;;27.50;40.03;99614.00;5038046;28;20104;-69
2021/08/04 01:07:16;;;;;;;22.92;11.38;;;;;;;27.50;41.06;99616.72;5039255;28;20037;-69
2021/08/04 01:10:17;;;;;;;22.75;10.80;;;;;;;27.23;41.92;99613.53;5040009;28;20726;-69
2021/08/04 01:12:50;;;;;;;19.25;10.23;;;;;;;27.22;42.67;99622.78;4995402;28;20049;-69
2021/08/04 01:15:17;;;;;;;24.58;12.10;;;;;;;27.39;42.39;99636.06;5039162;28;20470;-68
2021/08/04 01:17:47;;;;;;;22.83;9.88;;;;;;;27.11;43.06;99638.28;5042759;28;20043;-67
2021/08/04 01:20:31;;;;;;;23.10;10.20;;;;;;;26.99;43.36;99645.88;5041399;28;20061;-67
2021/08/04 01:23:02;;;;;;;20.10;10.35;;;;;;;26.95;43.39;99652.91;5040152;28;20021;-67
2021/08/04 01:26:07;;;;;;;19.17;9.35;;;;;;;27.12;43.37;99656.22;5039734;28;20030;-67
2021/08/04 01:28:39;;;;;;;22.38;9.57;;;;;;;27.25;42.56;99663.00;5008062;28;20045;-67
2021/08/04 01:31:08;;;;;;;21.52;9.73;;;;;;;27.18;42.47;99659.75;5040073;28;20033;-67
2021/08/04 01:33:37;;;;;;;21.23;9.70;;;;;;;27.05;42.40;99669.25;5039351;28;20033;-69
2021/08/04 01:36:04;;;;;;;21.80;9.20;;;;;;;26.99;42.38;99659.44;5038608;28;20033;-69
2021/08/04 01:38:31;;;;;;;19.65;9.02;;;;;;;27.04;42.71;99659.44;5036338;28;20044;-69
2021/08/04 01:40:58;;;;;;;15.85;8.32;;;;;;;27.07;42.36;99658.94;5039358;28;20049;-69
2021/08/04 01:43:25;;;;;;;20.13;8.68;;;;;;;26.97;43.08;99650.72;5038572;28;20036;-69
2021/08/04 01:45:55;;;;;;;19.20;8.90;;;;;;;26.83;43.65;99663.22;5040203;28;20036;-69
2021/08/04 01:48:21;;;;;;;15.57;7.70;;;;;;;26.89;43.56;99673.81;5039162;28;20235;-69
2021/08/04 01:50:47;;;;;;;14.52;8.20;;;;;;;26.86;43.72;99679.78;5038402;28;20037;-69
2021/08/04 01:53:13;;;;;;;14.95;7.28;;;;;;;26.89;43.96;99665.66;5039497;28;20032;-67
2021/08/04 01:55:39;;;;;;;15.65;7.18;;;;;;;27.16;43.81;99679.03;5038195;28;20126;-67
2021/08/04 01:58:05;;;;;;;25.98;9.50;;;;;;;27.30;43.71;99676.59;5038252;28;20052;-67
2021/08/04 02:00:30;;;;;;;29.05;14.63;;;;;;;27.14;44.50;99674.97;5039327;28;20041;-67
2021/08/04 02:02:56;;;;;;;32.65;14.05;;;;;;;27.11;44.41;99678.22;5038475;28;20029;-67
2021/08/04 02:05:21;;;;;;;16.27;8.95;;;;;;;27.01;44.21;99677.13;5039400;28;20029;-67
2021/08/04 02:08:05;;;;;;;19.55;9.57;;;;;;;26.72;45.79;99681.41;5033360;28;20052;-69
2021/08/04 02:10:49;;;;;;;;;;;;;;;26.56;46.12;99682.47;5039598;28;20272;-69
2021/08/04 02:13:46;;;;;;;22.25;10.48;;;;;;;26.50;46.54;99692.50;5038286;28;19959;-69
2021/08/04 02:16:37;;;;;;;31.23;13.55;;;;;;;26.43;47.29;99691.94;5033200;28;20115;-69
2021/08/04 02:19:36;;;;;;;29.02;14.45;;;;;;;26.45;47.47;99695.19;5037924;28;20029;-68
2021/08/04 02:22:05;;;;;;;26.95;13.93;;;;;;;26.53;47.06;99705.53;5038754;28;20075;-69
2021/08/04 02:24:33;;;;;;;30.23;13.52;;;;;;;26.53;47.57;99710.97;5037791;28;20029;-69
2021/08/04 02:27:00;;;;;;;24.92;11.38;;;;;;;26.41;47.98;99715.81;5038093;28;20041;-67
2021/08/04 02:29:30;;;;;;;25.92;11.52;;;;;;;26.38;47.84;99717.16;5038041;28;20104;-67
2021/08/04 02:31:56;;;;;;;27.88;11.13;;;;;;;26.38;47.58;99728.03;5037457;28;20037;-67
2021/08/04 02:34:22;;;;;;;21.13;10.30;;;;;;;26.39;47.88;99734.28;5037755;28;20053;-67
2021/08/04 02:36:48;;;;;;;27.08;10.05;;;;;;;26.55;47.11;99729.72;5038301;28;20048;-67
2021/08/04 02:39:14;;;;;;;18.92;9.43;;;;;;;26.78;46.03;99745.53;5037411;28;20040;-67
2021/08/04 02:41:39;;;;;;;20.70;10.00;;;;;;;26.61;46.45;99755.81;5038601;28;20025;-66
2021/08/04 02:44:06;;;;;;;20.25;9.20;;;;;;;26.51;47.04;99753.88;5037646;28;20034;-69
2021/08/04 02:46:32;;;;;;;22.45;9.25;;;;;;;26.56;47.49;99756.59;5038177;28;20025;-68
2021/08/04 02:48:58;;;;;;;23.55;9.50;;;;;;;26.59;46.84;99733.53;5038021;28;20037;-69
2021/08/04 02:51:24;;;;;;;21.05;9.40;;;;;;;26.64;47.11;99756.09;5037194;28;20025;-69
2021/08/04 02:53:57;;;;;;;24.77;9.05;;;;;;;26.65;47.12;99774.00;5038006;28;20017;-69
2021/08/04 02:56:24;;;;;;;19.10;9.30;;;;;;;26.45;47.04;99768.50;5037882;28;20204;-69
2021/08/04 02:58:50;;;;;;;22.50;10.20;;;;;;;26.45;47.68;99770.41;5031473;28;20021;-69
2021/08/04 03:01:15;;;;;;;24.45;10.73;;;;;;;26.31;48.72;99761.91;5037375;28;20040;-69
2021/08/04 03:03:40;;;;;;;21.67;10.15;;;;;;;26.19;49.72;99766.72;5037976;28;20225;-67
2021/08/04 03:06:06;;;;;;;24.73;9.60;;;;;;;26.13;50.16;99767.78;5037188;28;20029;-67
2021/08/04 03:08:31;;;;;;;19.88;10.43;;;;;;;26.39;49.67;99769.56;5038214;28;20311;-67
2021/08/04 03:10:57;;;;;;;24.00;10.52;;;;;;;26.32;50.03;99758.94;5031191;28;20052;-67
2021/08/04 03:13:23;;;;;;;21.27;10.05;;;;;;;26.04;50.67;99738.44;5037445;28;20030;-67
2021/08/04 03:15:48;;;;;;;25.90;9.85;;;;;;;26.12;51.89;99766.16;5037848;28;20072;-67
2021/08/04 03:18:14;;;;;;;23.95;9.57;;;;;;;26.13;52.51;99775.94;5036939;28;20254;-69
2021/08/04 03:20:39;;;;;;;20.58;10.00;;;;;;;26.32;52.71;99777.09;5038016;28;20232;-69
2021/08/04 03:23:05;;;;;;;26.50;10.13;;;;;;;26.36;51.76;99759.25;5036837;28;20029;-69
2021/08/04 03:25:30;;;;;;;20.20;9.65;;;;;;;26.33;52.59;99768.72;5037574;28;20327;-69
2021/08/04 03:27:56;;;;;;;24.58;10.30;;;;;;;26.25;53.52;99779.25;5037257;28;20225;-69
2021/08/04 03:30:21;;;;;;;20.33;10.05;;;;;;;26.28;53.74;99760.53;5036841;28;20041;-69
2021/08/04 03:32:46;;;;;;;20.60;9.70;;;;;;;26.28;54.22;99765.97;5038079;28;20026;-69
2021/08/04 03:35:12;;;;;;;21.17;10.40;;;;;;;26.34;53.88;99775.78;5036654;28;20043;-69
2021/08/04 03:37:38;;;;;;;20.13;10.55;;;;;;;26.43;53.86;99767.13;5036902;28;20307;-67
2021/08/04 03:40:04;;;;;;;28.38;10.93;;;;;;;26.33;53.07;99767.91;5037694;28;20048;-67
2021/08/04 03:42:30;;;;;;;32.72;10.60;;;;;;;26.16;53.57;99767.25;5036859;28;20026;-66
2021/08/04 03:44:55;;;;;;;24.73;9.80;;;;;;;26.23;53.48;99779.50;5037956;28;20033;-67
2021/08/04 03:47:21;;;;;;;30.33;10.00;;;;;;;26.34;53.21;99781.22;5035568;28;20059;-67
2021/08/04 03:49:46;;;;;;;31.85;10.13;;;;;;;26.26;54.22;99794.44;5036810;28;20311;-67
2021/08/04 03:52:11;;;;;;;20.23;9.73;;;;;;;26.38;53.40;99785.03;5037104;28;20360;-66
2021/08/04 03:54:37;;;;;;;21.70;10.27;;;;;;;26.62;53.23;99787.31;5037444;28;20221;-69
2021/08/04 03:57:03;;;;;;;22.27;10.27;;;;;;;26.48;53.29;99784.25;5036772;28;20405;-69
2021/08/04 03:59:28;;;;;;;29.58;10.35;;;;;;;26.50;53.58;99795.69;5037757;28;20323;-69
2021/08/04 04:01:53;;;;;;;27.00;11.02;;;;;;;26.38;53.99;99806.75;5036573;28;20029;-68
2021/08/04 04:04:19;;;;;;;23.27;9.63;;;;;;;26.48;53.38;99811.41;5036664;28;20067;-68
2021/08/04 04:06:44;;;;;;;17.98;9.38;;;;;;;26.70;53.15;99822.91;5037326;28;20094;-69
2021/08/04 04:09:10;;;;;;;28.63;9.35;;;;;;;26.86;52.15;99821.06;5036349;28;20188;-69
2021/08/04 04:11:36;;;;;;;20.75;9.93;;;;;;;26.94;51.29;99817.00;5037665;28;20037;-69
2021/08/04 04:14:02;;;;;;;23.30;9.65;;;;;;;27.03;50.67;99812.72;5036009;28;20034;-67
2021/08/04 04:16:27;;;;;;;21.02;10.10;;;;;;;26.86;50.50;99814.81;5036422;28;20393;-67
2021/08/04 04:18:52;;;;;;;19.50;9.70;;;;;;;26.62;51.29;99815.28;5037384;28;20344;-67
2021/08/04 04:21:18;;;;;;;26.88;9.63;;;;;;;26.75;51.02;99821.31;5036334;28;20037;-67
2021/08/04 04:23:43;;;;;;;27.55;10.93;;;;;;;26.76;50.57;99833.81;5037720;28;20067;-67
2021/08/04 04:26:09;;;;;;;19.13;10.68;;;;;;;26.81;49.80;99823.78;5036038;28;20037;-68
2021/08/04 04:28:34;;;;;;;21.05;9.90;;;;;;;27.00;49.39;99829.56;5036478;28;20025;-69
2021/08/04 04:31:00;;;;;;;22.73;10.15;;;;;;;26.88;48.06;99827.06;5037295;28;20044;-69
2021/08/04 04:33:25;;;;;;;23.33;10.15;;;;;;;26.80;49.43;99827.56;5036393;28;20195;-69
2021/08/04 04:35:51;;;;;;;19.98;9.65;;;;;;;26.92;49.62;99817.28;5037583;28;20041;-69
2021/08/04 04:38:16;;;;;;;24.25;9.88;;;;;;;27.03;50.38;99827.13;5039035;28;20497;-69
2021/08/04 04:40:42;;;;;;;22.70;9.63;;;;;;;27.25;49.57;99821.50;5040087;28;20034;-69
2021/08/04 04:43:07;;;;;;;24.83;10.15;;;;;;;27.43;49.69;99833.75;5040840;28;20033;-69
2021/08/04 04:45:33;;;;;;;19.23;9.93;;;;;;;27.82;47.81;99825.06;5039828;28;20038;-69
2021/08/04 04:47:58;;;;;;;20.48;10.60;;;;;;;28.05;46.74;99829.94;5035071;28;20323;-67
2021/08/04 04:50:24;;;;;;;26.08;10.50;;;;;;;28.23;45.37;99829.41;5039492;28;20041;-67
2021/08/04 04:52:49;;;;;;;17.85;9.55;;;;;;;28.44;44.82;99832.91;5039765;28;20025;-67
2021/08/04 04:55:15;;;;;;;19.00;9.25;;;;;;;28.67;44.38;99833.34;5040626;28;20041;-67
2021/08/04 04:57:40;;;;;;;21.08;9.02;;;;;;;29.00;43.56;99843.59;5039389;28;20171;-67
2021/08/04 05:00:07;;;;;;;19.08;9.02;;;;;;;29.07;43.39;99843.28;5040189;28;20030;-67
2021/08/04 05:02:36;;;;;;;18.55;8.68;;;;;;;29.16;43.51;99839.69;5038962;28;20223;-67
2021/08/04 05:05:02;;;;;;;19.05;8.73;;;;;;;29.49;43.04;99837.31;5039276;28;20037;-69
2021/08/04 05:07:27;;;;;;;18.90;8.10;;;;;;;29.84;42.57;99842.50;5040438;28;20096;-69
2021/08/04 05:09:53;;;;;;;23.55;9.10;;;;;;;30.10;42.21;99836.81;5039106;28;20037;-70
2021/08/04 05:12:18;;;;;;;15.20;8.27;;;;;;;30.48;40.79;99846.81;5039710;28;20206;-70
2021/08/04 05:14:43;;;;;;;15.52;8.85;;;;;;;30.46;40.51;99823.59;5039921;28;20037;-70
2021/08/04 05:17:12;;;;;;;18.50;8.73;;;;;;;30.87;39.32;99847.72;5039123;28;20025;-69
2021/08/04 05:19:37;;;;;;;24.40;7.53;;;;;;;31.16;38.40;99825.75;5036235;28;20284;-70
2021/08/04 05:22:03;;;;;;;14.43;7.50;;;;;;;31.40;37.00;99856.59;5039513;28;20033;-68
2021/08/04 05:24:28;;;;;;;18.70;7.72;;;;;;;31.74;36.77;99861.84;5039332;28;20044;-67
2021/08/04 05:26:54;;;;;;;20.45;7.07;;;;;;;32.00;36.32;99857.53;5039996;28;20017;-68
2021/08/04 05:29:19;;;;;;;13.90;7.35;;;;;;;32.24;35.97;99851.94;5038837;28;20029;-67
2021/08/04 05:31:45;;;;;;;16.85;6.82;;;;;;;32.58;35.00;99854.31;5039380;28;20037;-67
2021/08/04 05:34:10;;;;;;;14.35;6.75;;;;;;;32.90;34.12;99863.56;5039948;28;20025;-67
2021/08/04 05:36:36;;;;;;;13.73;6.60;;;;;;;33.10;32.55;99859.56;5038886;28;20049;-67
2021/08/04 05:39:01;;;;;;;19.48;7.03;;;;;;;33.28;32.43;99858.59;5039794;28;20061;-67
2021/08/04 05:41:26;;;;;;;19.58;8.15;;;;;;;33.37;33.31;99856.78;5038259;28;20083;-69
2021/08/04 05:43:52;;;;;;;15.27;7.63;;;;;;;33.27;34.61;99860.53;5038798;28;20021;-69
2021/08/04 05:46:17;;;;;;;20.75;8.13;;;;;;;33.52;34.69;99856.44;5039455;28;20039;-69
2021/08/04 05:48:43;;;;;;;14.30;7.40;;;;;;;33.43;35.36;99868.47;5039212;28;20079;-69
2021/08/04 05:51:08;;;;;;;16.30;7.50;;;;;;;33.47;35.08;99864.78;5038930;28;20040;-69
2021/08/04 05:53:33;;;;;;;15.82;7.18;;;;;;;33.07;34.50;99868.41;5037680;28;20071;-68
2021/08/04 05:55:59;;;;;;;18.98;6.47;;;;;;;33.38;32.09;99868.59;5037324;28;20037;-69
2021/08/04 05:58:24;;;;;;;12.88;6.55;;;;;;;33.67;32.87;99874.47;5038331;28;20025;-67
2021/08/04 06:00:50;;;;;;;19.10;6.80;;;;;;;33.87;32.85;99873.97;5035893;28;20331;-67
2021/08/04 06:03:15;;;;;;;15.95;7.10;;;;;;;34.08;33.07;99870.72;5037598;28;20040;-67
2021/08/04 06:05:41;;;;;;;11.57;6.32;;;;;;;34.34;32.03;99857.16;5038393;28;20030;-67
2021/08/04 06:08:07;;;;;;;12.55;6.65;;;;;;;34.41;30.98;99874.00;5037017;28;20067;-68
2021/08/04 06:10:34;;;;;;;11.90;6.75;;;;;;;34.76;29.92;99866.69;5037562;28;20139;-67
2021/08/04 06:13:00;;;;;;;16.20;6.75;;;;;;;35.08;28.92;99868.22;5038074;28;20310;-67
2021/08/04 06:15:25;;;;;;;23.02;7.05;;;;;;;34.91;28.81;99870.94;5037436;28;20037;-68
2021/08/04 06:17:51;;;;;;;15.13;6.57;;;;;;;34.53;29.25;99869.53;5037071;28;20079;-69
2021/08/04 06:20:16;;;;;;;21.02;6.80;;;;;;;34.27;29.22;99863.03;5037922;28;20056;-69
2021/08/04 06:22:42;;;;;;;12.43;6.22;;;;;;;33.76;30.04;99861.59;5035826;28;20029;-69
2021/08/04 06:25:08;;;;;;;29.10;8.20;;;;;;;34.17;29.06;99861.38;5037159;28;20030;-70
2021/08/04 06:27:33;;;;;;;13.25;6.70;;;;;;;34.79;28.06;99855.84;5052377;28;20057;-70
2021/08/04 06:29:58;;;;;;;11.63;6.30;;;;;;;35.21;27.74;99853.50;5036553;28;20235;-70
2021/08/04 06:32:24;;;;;;;12.27;5.97;;;;;;;35.06;27.94;99853.97;5037492;28;20037;-68
2021/08/04 06:34:49;;;;;;;16.75;6.22;;;;;;;35.48;26.62;99850.47;5037200;28;20042;-68
2021/08/04 06:37:15;;;;;;;16.67;6.75;;;;;;;35.44;26.66;99856.97;5036816;28;20432;-68
2021/08/04 06:39:42;;;;;;;13.48;6.00;;;;;;;35.49;26.87;99862.31;5037198;28;20053;-68
2021/08/04 06:42:07;;;;;;;13.57;6.53;;;;;;;35.17;26.72;99850.59;5036715;28;20315;-68
2021/08/04 06:44:33;;;;;;;19.15;7.03;;;;;;;35.61;26.27;99858.91;5036985;28;20029;-68
2021/08/04 06:46:59;;;;;;;19.75;6.32;;;;;;;35.39;26.42;99852.44;5037547;28;20346;-68
2021/08/04 06:49:24;;;;;;;13.32;5.75;;;;;;;35.94;25.88;99848.16;5036816;28;20406;-68
2021/08/04 06:51:50;;;;;;;9.93;5.60;;;;;;;36.34;25.65;99844.00;5036757;28;20025;-70
2021/08/04 06:54:15;;;;;;;25.77;6.38;;;;;;;36.28;24.68;99839.81;5037385;28;20048;-70
2021/08/04 06:56:41;;;;;;;13.55;6.40;;;;;;;36.73;23.94;99839.28;5037041;28;20029;-70
2021/08/04 06:59:06;;;;;;;8.90;5.63;;;;;;;36.96;24.18;99840.63;5038347;28;20021;-71
2021/08/04 07:01:32;;;;;;;16.08;5.85;;;;;;;36.91;24.36;99840.81;5037590;28;20052;-70
2021/08/04 07:03:57;;;;;;;11.93;5.93;;;;;;;37.09;24.58;99836.78;5037282;28;20259;-71
2021/08/04 07:06:23;;;;;;;10.20;5.85;;;;;;;37.20;24.05;99831.66;5037866;28;20033;-69
2021/08/04 07:08:48;;;;;;;12.57;5.82;;;;;;;37.50;23.70;99835.19;5037319;28;20079;-68
2021/08/04 07:11:14;;;;;;;18.50;7.25;;;;;;;37.69;23.51;99826.44;5037350;28;20227;-70
2021/08/04 07:13:40;;;;;;;14.50;7.00;;;;;;;37.68;23.37;99833.06;5037924;28;20101;-68
2021/08/04 07:16:06;;;;;;;13.80;6.57;;;;;;;37.64;23.23;99829.38;5037508;28;20041;-68
2021/08/04 07:18:32;;;;;;;16.25;6.40;;;;;;;38.00;22.49;99837.78;5037829;28;20036;-68
2021/08/04 07:20:57;;;;;;;18.13;6.13;;;;;;;37.84;23.37;99816.66;5036635;28;20108;-68
2021/08/04 07:23:23;;;;;;;67.00;10.45;;;;;;;37.17;23.57;99829.56;5037528;28;20059;-68
2021/08/04 07:25:49;;;;;;;17.05;7.18;;;;;;;37.11;23.53;99824.59;5037750;28;20105;-70
2021/08/04 07:28:14;;;;;;;13.27;5.95;;;;;;;37.01;24.17;99828.56;5037146;28;20036;-70
2021/08/04 07:30:40;;;;;;;14.95;6.15;;;;;;;36.47;24.97;99822.88;5038241;28;20258;-70
2021/08/04 07:33:06;;;;;;;11.52;6.15;;;;;;;36.76;24.60;99822.09;5036797;28;20025;-70
2021/08/04 07:35:31;;;;;;;12.88;6.47;;;;;;;36.31;24.71;99821.78;5038291;28;20041;-71
2021/08/04 07:37:57;;;;;;;12.23;6.53;;;;;;;36.21;25.14;99827.66;5031546;28;20041;-70
2021/08/04 07:40:22;;;;;;;10.15;6.13;;;;;;;35.85;26.10;99830.84;5030518;28;20038;-70
2021/08/04 07:42:49;;;;;;;35.45;8.23;;;;;;;35.59;26.64;99833.63;5032104;28;20022;-68
2021/08/04 07:45:16;;;;;;;10.73;6.28;;;;;;;36.02;25.46;99831.59;5036681;28;20037;-68
2021/08/04 07:47:42;;;;;;;15.80;6.82;;;;;;;36.15;25.51;99825.06;5037016;28;20037;-67
2021/08/04 07:50:08;;;;;;;15.68;6.28;;;;;;;36.51;24.99;99826.59;5036968;28;20053;-68
2021/08/04 07:52:34;;;;;;;13.00;6.47;;;;;;;36.87;24.23;99822.50;5036654;28;20053;-68
2021/08/04 07:54:59;;;;;;;15.23;6.53;;;;;;;37.30;23.62;99824.94;5037662;28;20281;-67
2021/08/04 07:57:25;;;;;;;11.95;6.80;;;;;;;37.18;23.81;99816.56;5036488;28;20040;-67
2021/08/04 07:59:50;;;;;;;15.85;5.93;;;;;;;37.24;24.14;99815.25;5036502;28;20087;-69
2021/08/04 08:02:15;;;;;;;13.18;6.22;;;;;;;37.22;23.98;99810.03;5037360;28;20033;-70
2021/08/04 08:04:41;;;;;;;17.58;7.10;;;;;;;37.75;23.57;99804.91;5035836;28;20037;-70
2021/08/04 08:07:06;;;;;;;16.40;6.90;;;;;;;38.00;23.33;99799.06;5036042;28;20045;-70
2021/08/04 08:09:32;;;;;;;15.68;6.72;;;;;;;38.26;22.73;99796.00;5035237;28;20021;-70
2021/08/04 08:12:00;;;;;;;19.83;7.55;;;;;;;38.62;22.17;99791.66;5036759;28;20033;-70
2021/08/04 08:14:27;;;;;;;13.40;6.93;;;;;;;39.02;22.12;99783.38;5039941;28;20205;-70
2021/08/04 08:16:53;;;;;;;16.25;6.65;;;;;;;39.07;22.77;99785.94;5040006;28;20041;-68
2021/08/04 08:19:19;;;;;;;14.43;7.18;;;;;;;39.23;22.32;99781.25;5038009;28;20029;-68
2021/08/04 08:21:45;;;;;;;16.35;6.63;;;;;;;39.16;21.83;99791.31;5040155;28;20037;-68
2021/08/04 08:24:11;;;;;;;15.18;7.18;;;;;;;39.32;21.56;99783.88;5039340;28;20093;-68
2021/08/04 08:26:37;;;;;;;11.95;6.40;;;;;;;39.43;22.48;99784.97;5040243;28;20196;-68
2021/08/04 08:29:04;;;;;;;12.85;6.75;;;;;;;39.40;21.44;99779.34;5039211;28;20264;-68
2021/08/04 08:31:31;;;;;;;12.07;6.47;;;;;;;39.56;21.19;99789.34;5038803;28;20339;-68
2021/08/04 08:34:00;;;;;;;15.57;6.97;;;;;;;39.36;21.61;99787.53;5039833;28;20342;-70
2021/08/04 08:36:30;;;;;;;14.68;6.60;;;;;;;39.57;20.74;99768.78;5039607;28;20355;-70
2021/08/04 08:38:57;;;;;;;16.00;6.82;;;;;;;39.76;20.42;99778.38;5038928;28;20033;-70
2021/08/04 08:41:23;;;;;;;11.32;6.63;;;;;;;39.86;20.12;99769.53;5040149;28;20334;-70
2021/08/04 08:43:48;;;;;;;16.98;6.72;;;;;;;39.88;20.51;99750.56;5038880;28;20690;-71
2021/08/04 08:46:15;;;;;;;15.63;6.72;;;;;;;39.33;21.14;99746.69;5039226;28;20049;-70
2021/08/04 08:48:48;;;;;;;14.88;6.80;;;;;;;39.65;20.58;99753.16;5039721;28;20021;-68
2021/08/04 08:51:15;;;;;;;;;;;;;;;39.80;20.64;99754.31;5038810;28;20281;-68
2021/08/04 08:53:41;;;;;;;12.77;6.10;;;;;;;39.47;20.55;99744.31;5037502;28;19913;-68
2021/08/04 08:56:06;;;;;;;16.42;7.03;;;;;;;38.68;21.47;99739.66;5038569;28;20323;-68
2021/08/04 08:58:32;;;;;;;16.58;7.13;;;;;;;38.33;21.86;99735.41;5038431;28;20033;-68
2021/08/04 09:00:57;;;;;;;14.07;6.80;;;;;;;37.94;22.15;99730.53;5038650;28;20064;-68
2021/08/04 09:03:23;;;;;;;17.85;6.72;;;;;;;38.39;22.03;99726.88;5039444;28;20040;-68
2021/08/04 09:05:54;;;;;;;17.58;6.35;;;;;;;38.10;22.73;99731.47;5038622;28;20025;-69
2021/08/04 09:08:34;;;;;;;15.60;6.70;;;;;;;38.33;22.30;99723.53;5038190;28;20026;-70
2021/08/04 09:11:15;;;;;;;16.98;7.03;;;;;;;38.80;21.56;99726.59;5037235;28;20037;-71
2021/08/04 09:13:42;;;;;;;16.23;6.55;;;;;;;39.24;21.53;99718.34;5039862;28;20228;-70
2021/08/04 09:16:10;;;;;;;12.70;6.00;;;;;;;39.12;20.99;99705.38;5038252;28;20056;-70
2021/08/04 09:18:51;;;;;;;14.90;6.85;;;;;;;39.31;21.22;99717.75;5037228;28;20091;-70
2021/08/04 09:21:17;;;;;;;16.08;6.75;;;;;;;39.39;20.88;99706.50;5038094;28;20052;-70
2021/08/04 09:23:49;;;;;;;17.05;6.40;;;;;;;39.47;21.21;99716.59;5038297;28;20021;-68
2021/08/04 09:26:17;;;;;;;18.73;6.80;;;;;;;39.49;21.00;99703.22;5038479;28;20324;-68
2021/08/04 09:28:52;;;;;;;12.18;6.60;;;;;;;39.19;20.72;99711.09;5037667;28;20033;-67
2021/08/04 09:31:20;;;;;;;17.02;6.88;;;;;;;39.02;20.79;99694.78;5038236;28;20034;-68
2021/08/04 09:33:46;;;;;;;10.55;6.45;;;;;;;39.26;20.20;99691.91;5038218;28;20034;-67
2021/08/04 09:36:17;;;;;;;14.93;6.45;;;;;;;38.99;20.46;99694.69;5038629;28;20083;-68
2021/08/04 09:39:00;;;;;;;15.85;6.22;;;;;;;39.08;21.73;99687.88;5037190;28;20022;-67
2021/08/04 09:41:25;;;;;;;15.15;6.93;;;;;;;38.96;21.13;99679.59;5037130;28;20053;-70
2021/08/04 09:44:03;;;;;;;20.48;6.25;;;;;;;38.88;20.83;99683.31;5038023;28;20307;-70
2021/08/04 09:46:29;;;;;;;16.60;6.22;;;;;;;38.31;20.72;99671.34;5037853;28;20089;-70
2021/08/04 09:49:08;;;;;;;10.30;5.05;;;;;;;38.46;20.52;99672.56;5038705;28;20048;-70
2021/08/04 09:51:33;;;;;;;11.55;5.65;;;;;;;37.92;20.96;99669.28;5038374;28;20052;-70
2021/08/04 09:54:11;;;;;;;13.27;5.70;;;;;;;37.78;20.30;99655.00;5037765;28;20033;-70
2021/08/04 09:57:03;;;;;;;17.10;5.75;;;;;;;37.61;21.70;99659.56;5032170;28;20105;-69
2021/08/04 09:59:28;;;;;;;15.75;6.00;;;;;;;37.90;21.48;99652.22;5035445;28;20053;-68
2021/08/04 10:01:56;;;;;;;22.17;6.30;;;;;;;37.69;21.48;99652.34;5036295;28;20029;-68
2021/08/04 10:04:21;;;;;;;19.83;5.90;;;;;;;37.73;20.45;99644.19;5037521;28;20104;-68
2021/08/04 10:06:47;;;;;;;14.35;5.90;;;;;;;37.73;21.14;99633.13;5037960;28;20060;-68
2021/08/04 10:09:15;;;;;;;17.08;5.57;;;;;;;37.91;20.67;99646.34;5037022;28;20068;-67
2021/08/04 10:11:45;;;;;;;16.17;5.50;;;;;;;37.88;22.07;99637.97;5038293;28;20029;-68
2021/08/04 10:14:16;;;;;;;14.60;5.47;;;;;;;38.13;21.43;99634.00;5037217;28;20037;-70
2021/08/04 10:16:42;;;;;;;26.08;6.35;;;;;;;37.95;21.41;99632.66;5036933;28;21609;-70
2021/08/04 10:19:07;;;;;;;19.95;6.32;;;;;;;37.77;21.85;99639.56;5036821;28;20029;-70
2021/08/04 10:21:35;;;;;;;11.05;5.40;;;;;;;37.34;20.27;99632.59;5037908;28;20095;-69
2021/08/04 10:24:02;;;;;;;20.25;5.82;;;;;;;37.41;20.90;99630.06;5037126;28;20041;-70
2021/08/04 10:26:29;;;;;;;18.63;5.10;;;;;;;37.19;20.61;99622.19;5036973;28;20040;-69
2021/08/04 10:28:57;;;;;;;16.23;5.30;;;;;;;37.08;21.20;99614.34;5037794;28;20265;-70
2021/08/04 10:31:24;;;;;;;11.90;5.50;;;;;;;37.37;22.39;99620.84;5037312;28;20041;-68
2021/08/04 10:33:49;;;;;;;16.20;6.07;;;;;;;37.42;21.47;99626.16;5036794;28;20307;-68
2021/08/04 10:36:18;;;;;;;13.57;5.45;;;;;;;37.15;20.93;99618.47;5037492;28;20140;-67
2021/08/04 10:38:54;;;;;;;22.83;5.25;;;;;;;36.96;21.62;99614.31;5037183;28;20052;-67
2021/08/04 10:41:25;;;;;;;11.02;4.68;;;;;;;36.59;21.71;99604.25;5033582;28;20247;-68
2021/08/04 10:44:00;;;;;;;19.27;5.45;;;;;;;36.36;22.07;99609.28;5037051;28;20238;-67
2021/08/04 10:46:32;;;;;;;12.27;5.18;;;;;;;36.28;21.63;99601.88;5036802;28;20029;-67
2021/08/04 10:49:06;;;;;;;16.55;4.97;;;;;;;36.44;22.77;99598.22;5037424;28;20370;-69
2021/08/04 10:51:35;;;;;;;15.57;5.43;;;;;;;36.61;21.95;99579.91;5037815;28;20029;-69
2021/08/04 10:54:00;;;;;;;16.30;5.22;;;;;;;36.75;22.79;99583.16;5036549;28;20645;-70
2021/08/04 10:56:31;;;;;;;19.63;5.40;;;;;;;36.96;22.22;99580.38;5036783;28;20025;-70
2021/08/04 10:59:12;;;;;;;12.48;5.32;;;;;;;37.26;21.51;99581.03;5037206;28;20432;-70
2021/08/04 11:01:38;;;;;;;15.82;5.18;;;;;;;37.37;22.23;99573.91;5037398;28;20048;-70
2021/08/04 11:04:12;;;;;;;15.93;5.80;;;;;;;37.36;21.00;99567.56;5036092;28;20605;-70
2021/08/04 11:06:56;;;;;;;;;;;;;;;37.37;21.31;99569.19;5037066;28;20042;-68
2021/08/04 11:09:21;;;;;;;10.60;5.00;;;;;;;37.39;21.27;99571.59;5035321;28;19913;-67
2021/08/04 11:12:01;;;;;;;18.38;5.88;;;;;;;37.49;21.44;99570.38;5037369;28;20060;-68
2021/08/04 11:14:58;;;;;;;15.68;5.55;;;;;;;37.54;21.97;99561.84;5037581;28;20033;-68
2021/08/04 11:17:24;;;;;;;14.82;5.25;;;;;;;37.73;20.83;99564.06;5036031;28;20045;-67
2021/08/04 11:19:58;;;;;;;15.73;5.18;;;;;;;37.93;21.51;99560.31;5036640;28;20044;-68
2021/08/04 11:22:31;;;;;;;18.73;4.70;;;;;;;38.00;21.23;99555.81;5036999;28;20342;-69
2021/08/04 11:25:08;;;;;;;19.52;5.50;;;;;;;38.02;20.82;99547.97;5035756;28;20029;-70
2021/08/04 11:27:45;;;;;;;18.23;4.70;;;;;;;38.13;19.68;99558.56;5036293;28;20325;-69